x

9415115 - Pittsburg (suisun Bay), Ca (psbc1) Weather Station

3:54am - Thu 25th Aug 2016 All times are PDT. -7 hours from GMT.

  • Wind
    21mph, 25mph gusts
  • Air Temp 59°f
  • Sea Pressure 1011.9mb
  • 9415115 - Pittsburg (suisun Bay), Ca
  • 9415115 - Pittsburg (suisun Bay), Ca

More Historic Weather Station data

Upgrade to MSW Pro to gain access to the past 30 days of data for over 8000 Wavebouys and Weather Stations around the globe.

Join Pro

Comparision Forecast

View Surf forecast
   
Thu 08/25 3:54am 21 25 mph 1011.9mb 59f
3:48am 22 28 mph 1011.7mb 59f
3:42am 18 24 mph 1012mb 59f
3:36am 18 24 mph 1011.9mb 59f
3:30am 20 25 mph 1011.8mb 59f
3:18am 18 24 mph 1012mb 59f
3:12am 17 23 mph 1012.1mb 59f
3:00am 18 25 mph 1012mb 59f
2:42am 16 21 mph 1012.1mb 59f
2:36am 15 18 mph 1012.2mb 60f
2:24am 17 23 mph 1012mb 59f
2:18am 17 22 mph 1012mb 59f
2:12am 17 23 mph 1012mb 59f
2:06am 20 23 mph 1011.9mb 59f
1:54am 20 24 mph 1012mb 59f
1:42am 18 25 mph 1012.1mb 59f
1:36am 17 26 mph 1012.2mb 59f
1:30am 22 28 mph 1012.2mb 60f
1:24am 23 29 mph 1012.3mb 60f
1:18am 24 30 mph 1012.3mb 60f
1:12am 23 29 mph 1012.3mb 60f
1:06am 23 29 mph 1012.2mb 60f
1:00am 24 29 mph 1012.3mb 61f
12:48am 21 25 mph 1012.5mb 61f
12:42am 20 24 mph 1012.5mb 62f
12:36am 18 23 mph 1012.6mb 62f
12:30am 17 25 mph 1012.7mb 62f
12:24am 16 22 mph 1012.6mb 62f
12:12am 18 24 mph 1012.4mb 62f
12:06am 20 24 mph 1012.4mb 63f
12:00am 21 25 mph 1012.5mb 63f
Wed 08/24 11:54pm 18 23 mph 1012.5mb 63f
11:48pm 18 24 mph 1012.6mb -
11:42pm 17 22 mph 1012.6mb -
11:36pm 16 23 mph 1012.6mb -
11:24pm 17 24 mph 1012.5mb 64f
10:30pm 17 22 mph 1012.8mb 65f
10:24pm 16 21 mph 1012.9mb 65f
9:12pm 10 16 mph 1013mb 67f
8:42pm 13 16 mph 1012.8mb 71f
8:30pm 10 13 mph 1012.8mb 69f
8:18pm 7 11 mph 1012.9mb 69f
7:48pm 18 23 mph 1012.6mb 70f
6:06pm  -  mph 1012.8mb 73f
4:24pm 17 22 mph 1013.5mb 75f
2:06pm 20 24 mph 1015.8mb 71f
1:12pm 17 22 mph 1016.4mb 68f
11:36am 18 24 mph 1017.5mb 65f
11:06am 17 23 mph 1017.9mb 64f
10:36am 16 22 mph 1018mb 64f
10:06am 17 22 mph 1018mb 65f
9:42am 20 23 mph 1017.9mb 64f
9:30am 17 22 mph 1017.9mb 63f
9:18am 16 23 mph 1017.9mb 63f
9:12am 18 23 mph 1017.8mb 62f
9:00am 18 23 mph 1017.8mb 62f
8:48am 20 23 mph 1017.7mb 61f
8:36am 21 26 mph 1017.6mb 61f
8:30am 21 25 mph 1017.6mb 61f
8:24am 18 24 mph 1017.6mb 60f
8:18am 18 24 mph 1017.6mb 60f
8:06am 17 23 mph 1017.5mb 60f
8:00am 16 22 mph 1017.5mb 60f
7:54am 17 24 mph 1017.4mb 60f
7:48am 20 25 mph 1017.4mb 59f
7:42am 18 24 mph 1017.4mb 59f
7:36am 17 26 mph 1017.4mb 59f
7:24am 17 23 mph 1017.3mb 59f
7:18am 16 22 mph 1017.3mb 59f
7:12am 16 22 mph 1017.2mb 59f
7:06am 16 21 mph 1017.2mb 59f
7:00am 15 22 mph 1017.1mb 58f
6:54am 16 23 mph 1017mb 58f
6:48am 20 25 mph 1016.9mb 58f
6:42am 18 23 mph 1017mb 59f
6:36am 20 24 mph 1016.9mb 59f
6:30am 18 23 mph 1016.9mb 59f
6:24am 17 23 mph 1017mb 59f
6:18am 18 22 mph 1017.1mb 59f
6:12am 14 18 mph 1017.2mb 59f
5:54am 15 21 mph 1017mb 59f
5:48am 15 21 mph 1016.9mb 59f
5:36am 14 21 mph 1016.8mb 59f
5:30am 17 22 mph 1016.7mb 59f
5:24am 17 21 mph 1016.7mb 59f
5:18am 16 20 mph 1016.8mb 59f
5:12am 15 17 mph 1016.8mb 59f
5:06am 14 17 mph 1016.9mb 59f
5:00am 14 17 mph 1016.9mb 59f
4:48am 13 16 mph 1016.9mb 59f
4:42am 14 20 mph 1016.8mb 59f
4:30am 14 20 mph 1016.8mb 59f
4:24am 14 21 mph 1016.8mb 59f
4:18am 15 20 mph 1016.7mb 59f
4:12am 14 18 mph 1016.9mb 59f
4:06am 13 17 mph 1016.9mb 59f
4:00am 14 18 mph 1016.9mb 59f
3:54am 14 17 mph 1017mb 59f
3:48am 11 15 mph 1017mb 59f
3:42am 13 21 mph 1016.9mb 59f
3:36am 17 22 mph 1016.7mb 59f
3:30am 17 23 mph 1016.6mb 59f
3:18am 18 24 mph 1016.6mb 59f
3:12am 18 24 mph 1016.6mb 59f
3:06am 20 25 mph 1016.6mb 60f
3:00am 20 24 mph 1016.5mb 60f
2:48am 18 24 mph 1016.5mb 60f
2:42am 21 25 mph 1016.4mb 60f
2:36am 20 24 mph 1016.4mb 60f
2:30am 17 24 mph 1016.4mb 60f
2:24am 20 25 mph 1016.3mb 60f
2:18am 17 23 mph 1016.4mb 60f
2:12am 18 23 mph 1016.3mb 60f
1:42am 17 23 mph 1016.4mb 61f
1:36am 20 24 mph 1016.3mb 61f
1:30am 22 26 mph 1016.3mb 60f
1:24am 21 25 mph 1016.4mb 60f
1:18am 21 26 mph 1016.4mb 60f
1:12am 22 25 mph 1016.5mb 60f
1:00am 20 24 mph 1016.4mb 60f
12:54am 20 22 mph 1016.6mb 60f
12:48am 17 23 mph 1016.7mb 60f
12:36am 20 24 mph 1016.6mb 60f
12:30am 18 23 mph 1016.6mb 61f
12:24am 18 24 mph 1016.5mb 61f
12:18am 18 24 mph 1016.5mb 61f
12:00am 18 24 mph 1016.5mb 62f
Tue 08/23 11:48pm 15 21 mph 1016.6mb -
11:42pm 14 21 mph 1016.6mb -
11:36pm 15 23 mph 1016.5mb -
11:30pm 17 24 mph 1016.2mb 62f
11:24pm 20 24 mph 1016.2mb 62f
11:18pm 17 23 mph 1016.4mb 62f
11:12pm 16 22 mph 1016.4mb 62f
11:06pm 18 24 mph 1016.3mb 62f
11:00pm 20 23 mph 1016.3mb 62f
10:54pm 17 24 mph 1016.4mb 62f
10:48pm 18 23 mph 1016.5mb 63f
10:36pm 16 22 mph 1016.5mb 63f
9:48pm 17 23 mph 1016.2mb 64f
9:30pm 18 23 mph 1016.1mb 65f
9:18pm 18 22 mph 1016.2mb 65f
9:06pm 16 22 mph 1016.1mb 66f
7:36pm 14 18 mph 1015.5mb 71f
6:18pm  -  mph 1015mb 75f
4:00pm 17 22 mph 1015.4mb 74f
3:30pm 18 24 mph 1015.6mb 73f
3:18pm 17 22 mph 1015.5mb 72f
3:06pm 17 24 mph 1015.6mb 72f
2:36pm 17 21 mph - 72f
2:24pm 17 22 mph 1016.1mb 73f
10:42am 15 21 mph 1017.4mb 65f
9:30am 15 20 mph 1017mb 63f
9:18am 13 21 mph 1017mb 63f
9:12am 16 20 mph 1017mb 62f
9:06am 16 22 mph 1017mb 62f
9:00am 17 21 mph 1016.9mb 62f
8:54am 16 21 mph 1016.9mb 62f
8:48am 16 20 mph 1016.8mb 62f
8:42am 15 22 mph 1016.8mb 62f
8:30am 15 21 mph 1016.7mb 62f
8:24am 17 22 mph 1016.6mb 61f
8:12am 17 22 mph 1016.5mb 61f
8:06am 15 22 mph 1016.4mb 61f
8:00am 16 22 mph 1016.3mb 61f
7:42am 15 22 mph 1016.2mb 60f
7:36am 15 21 mph 1016.1mb 60f
7:24am 13 20 mph 1015.9mb 60f
7:18am 15 21 mph 1015.8mb 60f
7:12am 15 22 mph 1015.7mb 60f
7:06am 15 21 mph 1015.7mb 59f
7:00am 13 20 mph 1015.8mb 60f
6:54am 15 18 mph 1015.7mb 60f
6:48am 15 22 mph 1015.7mb 60f
6:42am 15 21 mph 1015.6mb 60f
6:36am 14 22 mph 1015.6mb 60f
6:30am 16 23 mph 1015.4mb 60f
6:24am 16 22 mph 1015.4mb 59f
6:18am 17 25 mph 1015.2mb 60f
6:12am 16 23 mph 1015.1mb 59f
6:06am 16 22 mph 1015mb 59f
6:00am 15 20 mph 1015mb 59f
5:54am 13 18 mph 1015mb 59f
5:48am 15 21 mph 1015mb 59f
5:24am 14 18 mph 1014.6mb 59f
5:18am 10 17 mph 1014.7mb 59f
5:06am 14 21 mph 1014.5mb 59f
4:48am 15 20 mph 1014.3mb 59f
4:36am 16 21 mph 1014.2mb 59f
4:30am 14 16 mph 1014.3mb 59f
4:18am 14 20 mph 1014.3mb 59f
4:12am 16 21 mph 1014.2mb 60f
3:54am 14 21 mph 1014.3mb 60f
3:42am 17 21 mph 1014.3mb 60f
3:30am 15 21 mph 1014.3mb 60f
3:18am 14 17 mph 1014.2mb 60f
3:06am 16 22 mph 1013.9mb 60f
3:00am 15 23 mph 1013.9mb 60f
2:54am 20 23 mph 1013.8mb 60f
2:48am 18 24 mph 1013.8mb 60f
2:42am 20 26 mph 1013.7mb 61f
2:36am 21 25 mph 1013.6mb 61f
2:30am 20 28 mph 1013.6mb 61f
2:24am 22 28 mph 1013.5mb 61f
2:12am 20 24 mph 1013.6mb 61f
2:06am 18 23 mph 1013.6mb 61f
2:00am 17 24 mph 1013.7mb 61f
1:54am 18 23 mph 1013.7mb 61f
1:36am 21 26 mph 1013.5mb 61f
1:30am 20 25 mph 1013.5mb 61f
1:24am 20 25 mph 1013.5mb 61f
1:18am 21 25 mph 1013.5mb 61f
1:12am 17 24 mph 1013.5mb 61f
1:06am 18 24 mph 1013.5mb 61f
1:00am 18 24 mph 1013.4mb 61f
12:48am 18 24 mph 1013.5mb 61f
12:42am 16 22 mph 1013.5mb 62f
12:36am 15 20 mph 1013.5mb 61f
12:30am 16 24 mph 1013.4mb 61f
12:24am 18 23 mph 1013.4mb 61f
12:18am 18 24 mph 1013.3mb 61f
12:12am 18 24 mph 1013.2mb 62f
12:00am 18 24 mph 1013.2mb 62f
Mon 08/22 11:54pm 21 25 mph 1013.2mb 62f
11:48pm 20 25 mph 1013.3mb -
11:42pm 16 24 mph 1013.4mb -
11:36pm 18 24 mph 1013.4mb -
11:30pm 17 24 mph 1013.4mb 62f
11:12pm 17 24 mph 1013.2mb 62f
11:06pm 17 23 mph 1013.3mb 62f
11:00pm 17 22 mph 1013.2mb 62f
10:48pm 16 20 mph 1013.2mb -
10:42pm 17 22 mph 1013.1mb -
9:36pm 13 17 mph 1013mb 64f
9:30pm 13 17 mph 1013mb 64f
9:24pm 13 20 mph 1013mb 64f
8:54pm 18 23 mph 1012.5mb 65f
8:12pm 13 16 mph 1012mb 68f
7:36pm 9 14 mph 1011.7mb 70f
7:18pm 14 17 mph - 72f
7:12pm 13 18 mph - 72f
7:06pm 11 20 mph - 72f
6:54pm  -  mph 1011.3mb 73f
6:00pm  -  mph 1011.1mb 76f
5:48pm 14 18 mph 1011.1mb 76f
5:30pm 13 20 mph - 78f
3:42pm 22 28 mph - -
3:30pm 21 26 mph - 75f
3:24pm 21 26 mph - 75f
3:06pm 17 23 mph - 74f
3:00pm 17 23 mph 1011.1mb 74f
2:42pm 17 22 mph - 73f
2:06pm 18 25 mph 1011.5mb 71f
1:24pm 18 23 mph 1011.8mb 71f
1:06pm 16 23 mph 1012.2mb 69f
11:42am 17 23 mph 1012.2mb -
11:36am 16 22 mph 1012.3mb -
9:54am 13 18 mph 1013.2mb 65f
9:48am 11 16 mph 1013.3mb 65f
9:42am 15 21 mph 1013.1mb 64f
9:36am 10 18 mph 1013.2mb 64f
9:30am 15 17 mph 1013.2mb 64f
9:24am 11 22 mph 1013.2mb 63f
9:12am 15 20 mph 1013.2mb 63f
9:06am 15 21 mph 1013.1mb 62f
8:54am 16 22 mph 1013mb 62f
8:36am 16 21 mph 1012.8mb 61f
8:30am 14 18 mph 1012.9mb 61f
8:24am 16 24 mph 1012.5mb 60f
8:18am 17 23 mph 1012.4mb 60f
8:12am 16 22 mph 1012.5mb 60f
8:06am 17 21 mph 1012.5mb 60f
8:00am 18 24 mph 1012.4mb 60f
7:48am 17 23 mph 1012.3mb 60f
7:42am 17 24 mph 1012.2mb 60f
7:36am 20 24 mph 1012.1mb 60f
7:30am 17 23 mph 1012.2mb 60f
7:24am 20 23 mph 1012mb 60f
7:18am 17 23 mph 1012.1mb 60f
7:12am 18 23 mph 1011.8mb 60f
7:06am 17 23 mph 1011.7mb 60f
7:00am 16 23 mph 1011.8mb 60f
6:54am 20 29 mph 1011.6mb 59f
6:48am 21 28 mph 1011.5mb 60f
6:42am 18 25 mph 1011.6mb 60f
6:36am 18 25 mph 1011.6mb 60f
6:30am 21 25 mph 1011.4mb 60f
6:06am 22 26 mph 1011.4mb 60f
6:00am 20 25 mph 1011.5mb 60f
5:48am 16 22 mph 1011.7mb 60f
5:42am 16 22 mph 1011.7mb 60f
5:36am 16 22 mph 1011.7mb 60f
5:30am 15 21 mph 1011.8mb 60f
5:24am 17 25 mph 1011.8mb 60f
5:18am 16 24 mph 1011.7mb 60f
5:12am 18 24 mph 1011.5mb 60f
5:06am 16 25 mph 1011.7mb 60f
5:00am 17 25 mph 1011.5mb 60f
4:48am 20 28 mph 1011.3mb 60f
4:42am 22 26 mph 1011.2mb 60f
4:30am 17 24 mph 1011.2mb 61f
4:18am 21 25 mph 1011.1mb 61f
4:12am 20 23 mph 1011mb 61f
4:00am 18 24 mph 1010.8mb 61f
3:54am 16 22 mph 1010.9mb 61f
3:48am 18 25 mph 1010.8mb 61f
3:36am 20 25 mph 1010.8mb 61f
3:30am 18 24 mph 1011mb 61f
3:24am 20 25 mph 1011mb 61f
3:18am 21 26 mph 1010.9mb 61f
3:12am 22 28 mph 1010.7mb 61f
3:00am 22 29 mph 1010.8mb 62f
2:54am 22 28 mph 1010.7mb 62f
2:48am 21 29 mph 1010.6mb 62f
2:42am 20 24 mph 1010.7mb 62f
2:24am 18 24 mph 1010.9mb 62f
2:12am 20 24 mph 1011mb 62f
2:06am 17 22 mph 1010.9mb 62f
2:00am 15 20 mph 1011.2mb 62f
1:48am 11 17 mph 1011.3mb 62f
1:42am 13 18 mph 1011.3mb 62f
1:30am 14 17 mph 1011.3mb 62f
1:24am 10 14 mph 1011.5mb 62f
1:18am 13 18 mph 1011.2mb 63f
1:06am 17 22 mph 1010.9mb 63f
12:42am 14 20 mph 1011.2mb 63f
12:24am 16 21 mph 1011.1mb 63f
12:06am 17 22 mph 1010.8mb 64f
12:00am 15 20 mph 1011mb 63f
Sun 08/21 11:48pm 16 21 mph 1011.2mb -
11:42pm 16 21 mph 1011.2mb -
11:30pm 18 23 mph 1011.3mb 63f
11:24pm 18 23 mph 1011.2mb 63f
11:12pm 18 24 mph 1011.2mb 63f
11:06pm 17 25 mph 1011.2mb 63f
10:42pm 14 21 mph - -
10:30pm 17 23 mph 1011mb 63f
10:24pm 17 21 mph 1011.2mb 63f
8:54pm 16 22 mph 1011.2mb 64f
8:30pm 11 15 mph 1011.4mb 65f
6:42pm  -  mph 1010.3mb 71f
6:30pm  -  mph 1010.2mb 72f
4:24pm  -  mph 1009.9mb 74f
2:24pm 18 24 mph 1010.6mb 73f
1:00pm 18 22 mph 1011.3mb 71f
12:48pm 17 22 mph 1011.4mb 70f